Odenburg, Louisiana
Current Conditions -  °F | °C
As of 5:55 AM on Sunday 23 Nov 2014 (Local Time) from KHZR Reporting Station
Moderate Rain Moderate Rain  
Wind Chill: 64°   Ceiling: 600
Heat Index: 64°   Visibility: 4mi
Dew Point: 63°   Wind: 9mph
Humidity: 97%   Direction: 100°E
Pressure: 29.68"   Gusts: 20mph
Location:  30.9317°N, 91.8606°W
Report Text: KHZR 231155Z AUTO 10008G17KT 4SM RA OVC006 18/17 A2968 RMK AO2 LTG DSNT SE P0022 60037 70037 T01760172 10182 20175
Loading
Personal Weather Stations






























Interactive Weather Map New forecast layout! Learn more

10-Day Weather Forecast

Advertisements
Track Severe Weather on mobile